sensor_id;sensor_type;location;lat;lon;timestamp;temperature;humidity
30069;DHT22;16894;49.456;10.644;2023-07-28T00:00:21;16.00;99.70
30069;DHT22;16894;49.456;10.644;2023-07-28T00:02:46;16.00;99.70
30069;DHT22;16894;49.456;10.644;2023-07-28T00:05:12;16.00;99.90
30069;DHT22;16894;49.456;10.644;2023-07-28T00:07:38;15.90;99.90
30069;DHT22;16894;49.456;10.644;2023-07-28T00:10:03;15.90;99.90
30069;DHT22;16894;49.456;10.644;2023-07-28T00:12:29;16.00;99.90
30069;DHT22;16894;49.456;10.644;2023-07-28T00:14:55;16.00;99.90
30069;DHT22;16894;49.456;10.644;2023-07-28T00:17:20;15.90;99.90
30069;DHT22;16894;49.456;10.644;2023-07-28T00:19:46;15.90;99.90
30069;DHT22;16894;49.456;10.644;2023-07-28T00:22:12;15.90;99.90
30069;DHT22;16894;49.456;10.644;2023-07-28T00:24:38;16.00;99.90
30069;DHT22;16894;49.456;10.644;2023-07-28T00:27:04;16.00;99.90
30069;DHT22;16894;49.456;10.644;2023-07-28T00:29:30;16.00;99.90
30069;DHT22;16894;49.456;10.644;2023-07-28T00:31:57;15.90;99.90
30069;DHT22;16894;49.456;10.644;2023-07-28T00:34:23;15.90;99.90
30069;DHT22;16894;49.456;10.644;2023-07-28T00:36:48;16.00;99.90
30069;DHT22;16894;49.456;10.644;2023-07-28T00:39:14;15.90;99.90
30069;DHT22;16894;49.456;10.644;2023-07-28T00:41:39;16.00;99.90
30069;DHT22;16894;49.456;10.644;2023-07-28T00:44:05;15.90;99.90
30069;DHT22;16894;49.456;10.644;2023-07-28T00:46:31;16.00;99.90
30069;DHT22;16894;49.456;10.644;2023-07-28T00:48:57;16.00;99.90
30069;DHT22;16894;49.456;10.644;2023-07-28T00:51:23;15.90;99.90
30069;DHT22;16894;49.456;10.644;2023-07-28T00:53:49;15.90;99.90
30069;DHT22;16894;49.456;10.644;2023-07-28T00:56:15;16.00;99.90
30069;DHT22;16894;49.456;10.644;2023-07-28T00:58:42;15.90;99.90
30069;DHT22;16894;49.456;10.644;2023-07-28T01:01:07;15.90;99.90
30069;DHT22;16894;49.456;10.644;2023-07-28T01:03:33;15.90;99.90
30069;DHT22;16894;49.456;10.644;2023-07-28T01:11:14;15.90;99.90
30069;DHT22;16894;49.456;10.644;2023-07-28T01:13:40;15.90;99.90
30069;DHT22;16894;49.456;10.644;2023-07-28T01:16:07;15.90;99.90
30069;DHT22;16894;49.456;10.644;2023-07-28T01:18:33;15.90;99.90
30069;DHT22;16894;49.456;10.644;2023-07-28T01:21:01;16.00;99.90
30069;DHT22;16894;49.456;10.644;2023-07-28T01:26:09;15.90;99.90
30069;DHT22;16894;49.456;10.644;2023-07-28T01:28:36;15.90;99.90
30069;DHT22;16894;49.456;10.644;2023-07-28T01:31:04;15.90;99.90
30069;DHT22;16894;49.456;10.644;2023-07-28T01:33:30;16.00;99.90
30069;DHT22;16894;49.456;10.644;2023-07-28T01:35:55;15.90;99.70
30069;DHT22;16894;49.456;10.644;2023-07-28T01:38:21;15.90;99.70
30069;DHT22;16894;49.456;10.644;2023-07-28T01:40:47;15.90;99.80
30069;DHT22;16894;49.456;10.644;2023-07-28T01:43:13;15.90;99.80
30069;DHT22;16894;49.456;10.644;2023-07-28T01:45:39;15.90;99.90
30069;DHT22;16894;49.456;10.644;2023-07-28T01:48:04;15.90;99.90
30069;DHT22;16894;49.456;10.644;2023-07-28T01:50:31;15.90;99.90
30069;DHT22;16894;49.456;10.644;2023-07-28T01:52:56;15.90;99.90
30069;DHT22;16894;49.456;10.644;2023-07-28T01:55:22;15.90;99.80
30069;DHT22;16894;49.456;10.644;2023-07-28T01:57:56;15.90;99.80
30069;DHT22;16894;49.456;10.644;2023-07-28T02:00:22;15.90;99.90
30069;DHT22;16894;49.456;10.644;2023-07-28T02:02:49;15.90;99.90
30069;DHT22;16894;49.456;10.644;2023-07-28T02:05:14;15.90;99.90
30069;DHT22;16894;49.456;10.644;2023-07-28T02:07:40;15.90;99.90
30069;DHT22;16894;49.456;10.644;2023-07-28T02:10:07;15.90;99.90
30069;DHT22;16894;49.456;10.644;2023-07-28T02:12:32;15.90;99.90
30069;DHT22;16894;49.456;10.644;2023-07-28T02:14:58;15.90;99.90
30069;DHT22;16894;49.456;10.644;2023-07-28T02:17:24;15.90;99.90
30069;DHT22;16894;49.456;10.644;2023-07-28T02:19:49;15.90;99.90
30069;DHT22;16894;49.456;10.644;2023-07-28T02:22:15;16.00;99.90
30069;DHT22;16894;49.456;10.644;2023-07-28T02:24:40;16.00;99.90
30069;DHT22;16894;49.456;10.644;2023-07-28T02:27:06;16.00;99.90
30069;DHT22;16894;49.456;10.644;2023-07-28T02:29:32;16.00;99.90
30069;DHT22;16894;49.456;10.644;2023-07-28T02:31:57;16.00;99.90
30069;DHT22;16894;49.456;10.644;2023-07-28T02:34:23;16.00;99.90
30069;DHT22;16894;49.456;10.644;2023-07-28T02:36:49;16.00;99.90
30069;DHT22;16894;49.456;10.644;2023-07-28T02:39:15;16.00;99.90
30069;DHT22;16894;49.456;10.644;2023-07-28T02:41:40;16.00;99.90
30069;DHT22;16894;49.456;10.644;2023-07-28T02:44:06;16.00;99.90
30069;DHT22;16894;49.456;10.644;2023-07-28T02:46:31;16.00;99.90
30069;DHT22;16894;49.456;10.644;2023-07-28T02:48:57;15.90;99.90
30069;DHT22;16894;49.456;10.644;2023-07-28T02:51:23;16.00;99.90
30069;DHT22;16894;49.456;10.644;2023-07-28T02:53:48;16.00;99.90
30069;DHT22;16894;49.456;10.644;2023-07-28T02:56:14;16.00;99.90
30069;DHT22;16894;49.456;10.644;2023-07-28T02:58:39;16.00;99.90
30069;DHT22;16894;49.456;10.644;2023-07-28T03:01:05;16.00;99.90
30069;DHT22;16894;49.456;10.644;2023-07-28T03:03:31;16.00;99.90
30069;DHT22;16894;49.456;10.644;2023-07-28T03:05:56;16.00;99.90
30069;DHT22;16894;49.456;10.644;2023-07-28T03:08:23;16.10;99.90
30069;DHT22;16894;49.456;10.644;2023-07-28T03:10:48;16.10;99.90
30069;DHT22;16894;49.456;10.644;2023-07-28T03:13:14;16.10;99.90
30069;DHT22;16894;49.456;10.644;2023-07-28T03:15:39;16.10;99.90
30069;DHT22;16894;49.456;10.644;2023-07-28T03:18:05;16.10;99.90
30069;DHT22;16894;49.456;10.644;2023-07-28T03:20:31;16.10;99.90
30069;DHT22;16894;49.456;10.644;2023-07-28T03:22:56;16.10;99.90
30069;DHT22;16894;49.456;10.644;2023-07-28T03:25:22;16.10;99.90
30069;DHT22;16894;49.456;10.644;2023-07-28T03:27:48;16.10;99.90
30069;DHT22;16894;49.456;10.644;2023-07-28T03:30:13;16.10;99.90
30069;DHT22;16894;49.456;10.644;2023-07-28T03:32:39;16.10;99.90
30069;DHT22;16894;49.456;10.644;2023-07-28T03:35:05;16.10;99.90
30069;DHT22;16894;49.456;10.644;2023-07-28T03:37:32;16.10;99.90
30069;DHT22;16894;49.456;10.644;2023-07-28T03:39:57;16.10;99.90
30069;DHT22;16894;49.456;10.644;2023-07-28T03:42:23;16.00;99.90
30069;DHT22;16894;49.456;10.644;2023-07-28T03:44:49;16.00;99.90
30069;DHT22;16894;49.456;10.644;2023-07-28T03:47:15;16.00;99.90
30069;DHT22;16894;49.456;10.644;2023-07-28T03:49:40;16.00;99.90
30069;DHT22;16894;49.456;10.644;2023-07-28T03:52:06;16.00;99.90
30069;DHT22;16894;49.456;10.644;2023-07-28T03:54:31;16.00;99.90
30069;DHT22;16894;49.456;10.644;2023-07-28T03:56:57;16.00;99.90
30069;DHT22;16894;49.456;10.644;2023-07-28T03:59:23;15.90;99.90
30069;DHT22;16894;49.456;10.644;2023-07-28T04:01:48;15.90;99.90
30069;DHT22;16894;49.456;10.644;2023-07-28T04:04:14;15.90;99.90
30069;DHT22;16894;49.456;10.644;2023-07-28T04:06:47;15.90;99.90
30069;DHT22;16894;49.456;10.644;2023-07-28T04:09:15;15.90;99.90
30069;DHT22;16894;49.456;10.644;2023-07-28T04:11:41;15.90;99.90
30069;DHT22;16894;49.456;10.644;2023-07-28T04:14:07;15.90;99.90
30069;DHT22;16894;49.456;10.644;2023-07-28T04:16:34;15.90;99.90
30069;DHT22;16894;49.456;10.644;2023-07-28T04:19:00;15.90;99.90
30069;DHT22;16894;49.456;10.644;2023-07-28T04:21:25;15.90;99.90
30069;DHT22;16894;49.456;10.644;2023-07-28T04:23:51;15.90;99.90
30069;DHT22;16894;49.456;10.644;2023-07-28T04:26:17;15.90;99.90
30069;DHT22;16894;49.456;10.644;2023-07-28T04:28:43;15.90;99.90
30069;DHT22;16894;49.456;10.644;2023-07-28T04:31:09;15.90;99.90
30069;DHT22;16894;49.456;10.644;2023-07-28T04:33:34;15.90;99.90
30069;DHT22;16894;49.456;10.644;2023-07-28T04:36:03;16.00;99.90
30069;DHT22;16894;49.456;10.644;2023-07-28T04:38:29;15.90;99.90
30069;DHT22;16894;49.456;10.644;2023-07-28T04:40:55;16.00;99.90
30069;DHT22;16894;49.456;10.644;2023-07-28T04:43:21;16.00;99.90
30069;DHT22;16894;49.456;10.644;2023-07-28T04:45:46;16.00;99.90
30069;DHT22;16894;49.456;10.644;2023-07-28T04:48:12;16.00;99.90
30069;DHT22;16894;49.456;10.644;2023-07-28T04:50:37;16.00;99.90
30069;DHT22;16894;49.456;10.644;2023-07-28T04:53:03;16.00;99.90
30069;DHT22;16894;49.456;10.644;2023-07-28T04:55:29;16.00;99.90
30069;DHT22;16894;49.456;10.644;2023-07-28T04:57:55;16.00;99.90
30069;DHT22;16894;49.456;10.644;2023-07-28T05:00:21;16.10;99.90
30069;DHT22;16894;49.456;10.644;2023-07-28T05:02:47;16.10;99.90
30069;DHT22;16894;49.456;10.644;2023-07-28T05:05:13;16.10;99.90
30069;DHT22;16894;49.456;10.644;2023-07-28T05:07:38;16.10;99.90
30069;DHT22;16894;49.456;10.644;2023-07-28T05:10:04;16.20;99.90
30069;DHT22;16894;49.456;10.644;2023-07-28T05:12:30;16.20;99.90
30069;DHT22;16894;49.456;10.644;2023-07-28T05:14:56;16.20;99.90
30069;DHT22;16894;49.456;10.644;2023-07-28T05:17:21;16.20;99.90
30069;DHT22;16894;49.456;10.644;2023-07-28T05:19:49;16.30;99.90
30069;DHT22;16894;49.456;10.644;2023-07-28T05:22:15;16.30;99.90
30069;DHT22;16894;49.456;10.644;2023-07-28T05:24:40;16.30;99.90
30069;DHT22;16894;49.456;10.644;2023-07-28T05:27:06;16.30;99.90
30069;DHT22;16894;49.456;10.644;2023-07-28T05:29:32;16.40;99.90
30069;DHT22;16894;49.456;10.644;2023-07-28T05:32:00;16.40;99.90
30069;DHT22;16894;49.456;10.644;2023-07-28T05:34:26;16.40;99.90
30069;DHT22;16894;49.456;10.644;2023-07-28T05:36:52;16.40;99.90
30069;DHT22;16894;49.456;10.644;2023-07-28T05:39:18;16.40;99.90
30069;DHT22;16894;49.456;10.644;2023-07-28T05:41:43;16.50;99.90
30069;DHT22;16894;49.456;10.644;2023-07-28T05:44:09;16.50;99.90
30069;DHT22;16894;49.456;10.644;2023-07-28T05:46:35;16.50;99.90
30069;DHT22;16894;49.456;10.644;2023-07-28T05:49:00;16.50;99.90
30069;DHT22;16894;49.456;10.644;2023-07-28T05:51:26;16.60;99.90
30069;DHT22;16894;49.456;10.644;2023-07-28T05:53:52;16.60;99.90
30069;DHT22;16894;49.456;10.644;2023-07-28T05:56:17;16.60;99.90
30069;DHT22;16894;49.456;10.644;2023-07-28T05:58:46;16.70;99.90
30069;DHT22;16894;49.456;10.644;2023-07-28T06:01:12;16.60;99.90
30069;DHT22;16894;49.456;10.644;2023-07-28T06:03:38;16.60;99.90
30069;DHT22;16894;49.456;10.644;2023-07-28T06:06:04;16.70;99.90
30069;DHT22;16894;49.456;10.644;2023-07-28T06:08:29;16.70;99.90
30069;DHT22;16894;49.456;10.644;2023-07-28T06:10:55;16.70;99.90
30069;DHT22;16894;49.456;10.644;2023-07-28T06:13:20;16.80;99.90
30069;DHT22;16894;49.456;10.644;2023-07-28T06:15:46;16.90;99.90
30069;DHT22;16894;49.456;10.644;2023-07-28T06:18:12;16.80;99.90
30069;DHT22;16894;49.456;10.644;2023-07-28T06:20:42;16.90;99.90
30069;DHT22;16894;49.456;10.644;2023-07-28T06:23:07;16.90;99.90
30069;DHT22;16894;49.456;10.644;2023-07-28T06:25:33;16.90;99.90
30069;DHT22;16894;49.456;10.644;2023-07-28T06:27:59;16.90;99.60
30069;DHT22;16894;49.456;10.644;2023-07-28T06:30:25;16.80;99.60
30069;DHT22;16894;49.456;10.644;2023-07-28T06:32:51;16.70;99.70
30069;DHT22;16894;49.456;10.644;2023-07-28T06:35:17;16.70;99.90
30069;DHT22;16894;49.456;10.644;2023-07-28T06:37:42;16.70;99.80
30069;DHT22;16894;49.456;10.644;2023-07-28T06:40:09;16.70;99.90
30069;DHT22;16894;49.456;10.644;2023-07-28T06:42:36;16.60;99.90
30069;DHT22;16894;49.456;10.644;2023-07-28T06:45:03;16.60;99.90
30069;DHT22;16894;49.456;10.644;2023-07-28T06:47:29;16.60;99.90
30069;DHT22;16894;49.456;10.644;2023-07-28T06:49:54;16.70;99.90
30069;DHT22;16894;49.456;10.644;2023-07-28T06:52:20;16.70;99.90
30069;DHT22;16894;49.456;10.644;2023-07-28T06:54:46;16.80;99.90
30069;DHT22;16894;49.456;10.644;2023-07-28T06:57:12;16.80;99.90
30069;DHT22;16894;49.456;10.644;2023-07-28T06:59:38;16.90;99.90
30069;DHT22;16894;49.456;10.644;2023-07-28T07:02:04;17.00;99.90
30069;DHT22;16894;49.456;10.644;2023-07-28T07:04:30;17.10;99.90
30069;DHT22;16894;49.456;10.644;2023-07-28T07:06:56;17.10;99.90
30069;DHT22;16894;49.456;10.644;2023-07-28T07:09:22;17.10;99.90
30069;DHT22;16894;49.456;10.644;2023-07-28T07:11:47;17.10;99.90
30069;DHT22;16894;49.456;10.644;2023-07-28T07:14:13;17.10;99.90
30069;DHT22;16894;49.456;10.644;2023-07-28T07:16:40;17.20;99.20
30069;DHT22;16894;49.456;10.644;2023-07-28T07:19:05;17.20;98.90
30069;DHT22;16894;49.456;10.644;2023-07-28T07:21:31;17.30;98.90
30069;DHT22;16894;49.456;10.644;2023-07-28T07:23:56;17.30;97.60
30069;DHT22;16894;49.456;10.644;2023-07-28T07:26:22;17.30;98.30
30069;DHT22;16894;49.456;10.644;2023-07-28T07:28:48;17.40;98.90
30069;DHT22;16894;49.456;10.644;2023-07-28T07:31:14;17.50;99.10
30069;DHT22;16894;49.456;10.644;2023-07-28T07:33:40;17.60;99.70
30069;DHT22;16894;49.456;10.644;2023-07-28T07:36:05;17.70;98.90
30069;DHT22;16894;49.456;10.644;2023-07-28T07:38:36;17.90;99.10
30069;DHT22;16894;49.456;10.644;2023-07-28T07:41:02;18.00;97.30
30069;DHT22;16894;49.456;10.644;2023-07-28T07:43:30;18.20;96.30
30069;DHT22;16894;49.456;10.644;2023-07-28T07:45:55;18.30;95.00
30069;DHT22;16894;49.456;10.644;2023-07-28T07:48:21;18.40;95.70
30069;DHT22;16894;49.456;10.644;2023-07-28T07:50:46;18.50;95.50
30069;DHT22;16894;49.456;10.644;2023-07-28T07:53:12;18.60;96.10
30069;DHT22;16894;49.456;10.644;2023-07-28T07:55:38;18.70;94.30
30069;DHT22;16894;49.456;10.644;2023-07-28T07:58:03;18.90;90.20
30069;DHT22;16894;49.456;10.644;2023-07-28T08:00:29;18.90;90.90
30069;DHT22;16894;49.456;10.644;2023-07-28T08:02:55;18.90;90.20
30069;DHT22;16894;49.456;10.644;2023-07-28T08:05:20;18.80;90.30
30069;DHT22;16894;49.456;10.644;2023-07-28T08:07:46;18.90;86.00
30069;DHT22;16894;49.456;10.644;2023-07-28T08:10:13;18.90;90.50
30069;DHT22;16894;49.456;10.644;2023-07-28T08:12:38;19.00;83.80
30069;DHT22;16894;49.456;10.644;2023-07-28T08:15:05;19.10;82.50
30069;DHT22;16894;49.456;10.644;2023-07-28T08:17:30;19.10;86.30
30069;DHT22;16894;49.456;10.644;2023-07-28T08:19:56;19.00;84.10
30069;DHT22;16894;49.456;10.644;2023-07-28T08:22:22;19.10;81.00
30069;DHT22;16894;49.456;10.644;2023-07-28T08:24:47;19.10;81.30
30069;DHT22;16894;49.456;10.644;2023-07-28T08:27:13;19.10;85.60
30069;DHT22;16894;49.456;10.644;2023-07-28T08:29:39;19.10;88.00
30069;DHT22;16894;49.456;10.644;2023-07-28T08:32:04;19.30;82.40
30069;DHT22;16894;49.456;10.644;2023-07-28T08:34:30;19.30;84.30
30069;DHT22;16894;49.456;10.644;2023-07-28T08:36:56;19.50;84.10
30069;DHT22;16894;49.456;10.644;2023-07-28T08:39:21;19.70;83.50
30069;DHT22;16894;49.456;10.644;2023-07-28T08:41:47;19.70;75.10
30069;DHT22;16894;49.456;10.644;2023-07-28T08:44:13;19.60;78.30
30069;DHT22;16894;49.456;10.644;2023-07-28T08:46:39;19.80;72.80
30069;DHT22;16894;49.456;10.644;2023-07-28T08:49:05;19.80;64.90
30069;DHT22;16894;49.456;10.644;2023-07-28T08:51:31;19.90;70.00
30069;DHT22;16894;49.456;10.644;2023-07-28T08:53:56;19.80;70.70
30069;DHT22;16894;49.456;10.644;2023-07-28T08:56:23;19.70;73.80
30069;DHT22;16894;49.456;10.644;2023-07-28T08:58:49;19.60;71.60
30069;DHT22;16894;49.456;10.644;2023-07-28T09:01:23;19.40;76.00
30069;DHT22;16894;49.456;10.644;2023-07-28T09:03:49;19.50;74.00
30069;DHT22;16894;49.456;10.644;2023-07-28T09:06:14;19.70;71.80
30069;DHT22;16894;49.456;10.644;2023-07-28T09:08:43;19.70;73.70
30069;DHT22;16894;49.456;10.644;2023-07-28T09:11:08;19.80;69.50
30069;DHT22;16894;49.456;10.644;2023-07-28T09:13:41;19.80;71.30
30069;DHT22;16894;49.456;10.644;2023-07-28T09:16:18;19.80;64.20
30069;DHT22;16894;49.456;10.644;2023-07-28T09:18:44;19.70;64.30
30069;DHT22;16894;49.456;10.644;2023-07-28T09:21:17;19.80;56.50
30069;DHT22;16894;49.456;10.644;2023-07-28T09:23:44;19.70;54.10
30069;DHT22;16894;49.456;10.644;2023-07-28T09:26:10;19.70;60.50
30069;DHT22;16894;49.456;10.644;2023-07-28T09:28:37;19.60;66.80
30069;DHT22;16894;49.456;10.644;2023-07-28T09:31:05;19.50;63.90
30069;DHT22;16894;49.456;10.644;2023-07-28T09:33:32;19.10;72.80
30069;DHT22;16894;49.456;10.644;2023-07-28T09:36:08;19.00;81.20
30069;DHT22;16894;49.456;10.644;2023-07-28T09:38:39;19.10;78.20
30069;DHT22;16894;49.456;10.644;2023-07-28T09:41:10;19.10;73.50
30069;DHT22;16894;49.456;10.644;2023-07-28T09:43:38;19.20;72.70
30069;DHT22;16894;49.456;10.644;2023-07-28T09:46:05;19.20;66.80
30069;DHT22;16894;49.456;10.644;2023-07-28T09:48:32;19.30;68.00
30069;DHT22;16894;49.456;10.644;2023-07-28T09:51:03;19.40;66.40
30069;DHT22;16894;49.456;10.644;2023-07-28T09:53:33;19.50;71.10
30069;DHT22;16894;49.456;10.644;2023-07-28T09:56:01;19.60;66.20
30069;DHT22;16894;49.456;10.644;2023-07-28T09:58:30;19.80;65.30
30069;DHT22;16894;49.456;10.644;2023-07-28T10:00:59;20.20;67.40
30069;DHT22;16894;49.456;10.644;2023-07-28T10:03:26;20.70;51.00
30069;DHT22;16894;49.456;10.644;2023-07-28T10:05:52;21.00;46.70
30069;DHT22;16894;49.456;10.644;2023-07-28T10:08:18;21.10;46.60
30069;DHT22;16894;49.456;10.644;2023-07-28T10:10:46;21.00;51.70
30069;DHT22;16894;49.456;10.644;2023-07-28T10:13:20;21.20;48.60
30069;DHT22;16894;49.456;10.644;2023-07-28T10:15:46;21.20;46.00
30069;DHT22;16894;49.456;10.644;2023-07-28T10:18:13;21.10;49.50
30069;DHT22;16894;49.456;10.644;2023-07-28T10:20:42;21.10;40.70
30069;DHT22;16894;49.456;10.644;2023-07-28T10:23:19;21.10;48.40
30069;DHT22;16894;49.456;10.644;2023-07-28T10:25:46;21.50;38.20
30069;DHT22;16894;49.456;10.644;2023-07-28T10:28:31;21.90;46.50
30069;DHT22;16894;49.456;10.644;2023-07-28T10:30:57;21.80;99.90
30069;DHT22;16894;49.456;10.644;2023-07-28T10:33:34;22.20;48.00
30069;DHT22;16894;49.456;10.644;2023-07-28T10:36:14;22.60;99.90
30069;DHT22;16894;49.456;10.644;2023-07-28T10:38:41;22.90;99.90
30069;DHT22;16894;49.456;10.644;2023-07-28T10:41:16;23.00;99.90
30069;DHT22;16894;49.456;10.644;2023-07-28T10:43:43;22.70;99.90
30069;DHT22;16894;49.456;10.644;2023-07-28T10:46:10;22.70;99.90
30069;DHT22;16894;49.456;10.644;2023-07-28T10:48:44;22.60;99.90
30069;DHT22;16894;49.456;10.644;2023-07-28T10:51:11;22.70;99.90
30069;DHT22;16894;49.456;10.644;2023-07-28T10:53:38;22.80;99.90
30069;DHT22;16894;49.456;10.644;2023-07-28T10:56:05;23.20;99.90
30069;DHT22;16894;49.456;10.644;2023-07-28T10:58:34;23.90;99.90
30069;DHT22;16894;49.456;10.644;2023-07-28T11:01:01;24.20;99.90
30069;DHT22;16894;49.456;10.644;2023-07-28T11:03:27;23.90;99.90
30069;DHT22;16894;49.456;10.644;2023-07-28T11:05:55;23.80;99.90
30069;DHT22;16894;49.456;10.644;2023-07-28T11:08:22;24.20;99.90
30069;DHT22;16894;49.456;10.644;2023-07-28T11:10:47;25.00;99.90
30069;DHT22;16894;49.456;10.644;2023-07-28T11:13:13;25.60;99.90
30069;DHT22;16894;49.456;10.644;2023-07-28T11:15:39;25.40;99.90
30069;DHT22;16894;49.456;10.644;2023-07-28T11:18:04;24.80;99.90
30069;DHT22;16894;49.456;10.644;2023-07-28T11:20:30;23.80;99.90
30069;DHT22;16894;49.456;10.644;2023-07-28T11:22:57;23.20;99.90
30069;DHT22;16894;49.456;10.644;2023-07-28T11:25:24;22.90;99.90
30069;DHT22;16894;49.456;10.644;2023-07-28T11:27:50;22.90;99.90
30069;DHT22;16894;49.456;10.644;2023-07-28T11:30:17;23.00;99.90
30069;DHT22;16894;49.456;10.644;2023-07-28T11:32:45;23.00;99.90
30069;DHT22;16894;49.456;10.644;2023-07-28T11:35:12;22.90;99.90
30069;DHT22;16894;49.456;10.644;2023-07-28T11:37:39;23.40;99.90
30069;DHT22;16894;49.456;10.644;2023-07-28T11:40:08;23.40;99.90
30069;DHT22;16894;49.456;10.644;2023-07-28T11:42:41;23.30;99.90
30069;DHT22;16894;49.456;10.644;2023-07-28T11:45:09;23.10;99.90
30069;DHT22;16894;49.456;10.644;2023-07-28T11:47:35;23.00;99.90
30069;DHT22;16894;49.456;10.644;2023-07-28T11:50:01;23.10;99.90
30069;DHT22;16894;49.456;10.644;2023-07-28T11:52:36;23.20;99.90
30069;DHT22;16894;49.456;10.644;2023-07-28T11:55:05;23.20;99.90
30069;DHT22;16894;49.456;10.644;2023-07-28T11:57:32;23.20;99.90
30069;DHT22;16894;49.456;10.644;2023-07-28T11:59:59;23.00;99.90
30069;DHT22;16894;49.456;10.644;2023-07-28T12:02:26;22.80;99.90
30069;DHT22;16894;49.456;10.644;2023-07-28T12:04:52;23.10;99.90
30069;DHT22;16894;49.456;10.644;2023-07-28T12:07:27;23.60;99.90
30069;DHT22;16894;49.456;10.644;2023-07-28T12:09:53;24.60;99.90
30069;DHT22;16894;49.456;10.644;2023-07-28T12:12:26;25.50;99.90
30069;DHT22;16894;49.456;10.644;2023-07-28T12:14:55;25.80;99.90
30069;DHT22;16894;49.456;10.644;2023-07-28T12:17:23;25.00;99.90
30069;DHT22;16894;49.456;10.644;2023-07-28T12:22:43;23.80;99.90
30069;DHT22;16894;49.456;10.644;2023-07-28T12:25:10;24.10;99.90
30069;DHT22;16894;49.456;10.644;2023-07-28T12:27:37;24.20;99.90
30069;DHT22;16894;49.456;10.644;2023-07-28T12:30:03;24.10;99.90
30069;DHT22;16894;49.456;10.644;2023-07-28T12:32:29;23.40;99.90
30069;DHT22;16894;49.456;10.644;2023-07-28T12:34:55;22.90;99.90
30069;DHT22;16894;49.456;10.644;2023-07-28T12:37:20;22.80;99.90
30069;DHT22;16894;49.456;10.644;2023-07-28T12:39:47;23.50;99.90
30069;DHT22;16894;49.456;10.644;2023-07-28T12:42:14;23.40;99.90
30069;DHT22;16894;49.456;10.644;2023-07-28T12:44:42;23.50;99.90
30069;DHT22;16894;49.456;10.644;2023-07-28T12:47:08;23.70;99.90
30069;DHT22;16894;49.456;10.644;2023-07-28T12:49:33;24.20;99.90
30069;DHT22;16894;49.456;10.644;2023-07-28T12:52:00;25.00;99.90
30069;DHT22;16894;49.456;10.644;2023-07-28T12:54:26;25.40;99.90
30069;DHT22;16894;49.456;10.644;2023-07-28T12:56:55;25.40;99.90
30069;DHT22;16894;49.456;10.644;2023-07-28T12:59:21;25.90;99.90
30069;DHT22;16894;49.456;10.644;2023-07-28T13:01:47;26.30;99.90
30069;DHT22;16894;49.456;10.644;2023-07-28T13:04:13;27.40;99.90
30069;DHT22;16894;49.456;10.644;2023-07-28T13:06:38;28.30;99.60
30069;DHT22;16894;49.456;10.644;2023-07-28T13:09:06;27.50;99.90
30069;DHT22;16894;49.456;10.644;2023-07-28T13:11:33;26.60;99.90
30069;DHT22;16894;49.456;10.644;2023-07-28T13:13:59;25.80;99.90
30069;DHT22;16894;49.456;10.644;2023-07-28T13:16:24;25.20;99.90
30069;DHT22;16894;49.456;10.644;2023-07-28T13:18:50;24.80;99.90
30069;DHT22;16894;49.456;10.644;2023-07-28T13:21:16;25.10;99.90
30069;DHT22;16894;49.456;10.644;2023-07-28T13:23:42;25.40;99.90
30069;DHT22;16894;49.456;10.644;2023-07-28T13:26:07;25.60;99.90
30069;DHT22;16894;49.456;10.644;2023-07-28T13:28:33;25.70;99.90
30069;DHT22;16894;49.456;10.644;2023-07-28T13:31:01;25.40;99.90
30069;DHT22;16894;49.456;10.644;2023-07-28T13:33:27;25.50;99.90
30069;DHT22;16894;49.456;10.644;2023-07-28T13:35:52;25.80;99.90
30069;DHT22;16894;49.456;10.644;2023-07-28T13:38:18;25.30;99.90
30069;DHT22;16894;49.456;10.644;2023-07-28T13:40:44;24.90;99.90
30069;DHT22;16894;49.456;10.644;2023-07-28T13:43:09;24.70;99.90
30069;DHT22;16894;49.456;10.644;2023-07-28T13:45:35;24.60;99.90
30069;DHT22;16894;49.456;10.644;2023-07-28T13:48:00;24.40;99.90
30069;DHT22;16894;49.456;10.644;2023-07-28T13:50:26;24.50;99.90
30069;DHT22;16894;49.456;10.644;2023-07-28T13:52:52;24.70;99.90
30069;DHT22;16894;49.456;10.644;2023-07-28T13:55:17;25.10;99.90
30069;DHT22;16894;49.456;10.644;2023-07-28T13:57:43;25.00;99.90
30069;DHT22;16894;49.456;10.644;2023-07-28T14:00:09;24.90;99.90
30069;DHT22;16894;49.456;10.644;2023-07-28T14:02:36;24.60;99.90
30069;DHT22;16894;49.456;10.644;2023-07-28T14:05:02;24.30;99.90
30069;DHT22;16894;49.456;10.644;2023-07-28T14:07:29;24.20;99.90
30069;DHT22;16894;49.456;10.644;2023-07-28T14:09:54;24.30;99.90
30069;DHT22;16894;49.456;10.644;2023-07-28T14:12:20;24.50;99.90
30069;DHT22;16894;49.456;10.644;2023-07-28T14:14:46;24.70;99.90
30069;DHT22;16894;49.456;10.644;2023-07-28T14:17:12;24.80;99.90
30069;DHT22;16894;49.456;10.644;2023-07-28T14:19:39;24.40;99.90
30069;DHT22;16894;49.456;10.644;2023-07-28T14:22:05;24.10;99.90
30069;DHT22;16894;49.456;10.644;2023-07-28T14:24:31;23.90;99.90
30069;DHT22;16894;49.456;10.644;2023-07-28T14:26:57;23.70;99.90
30069;DHT22;16894;49.456;10.644;2023-07-28T14:29:22;23.50;99.90
30069;DHT22;16894;49.456;10.644;2023-07-28T14:31:48;23.30;99.90
30069;DHT22;16894;49.456;10.644;2023-07-28T14:34:14;23.10;99.90
30069;DHT22;16894;49.456;10.644;2023-07-28T14:36:40;23.10;99.90
30069;DHT22;16894;49.456;10.644;2023-07-28T14:39:06;23.20;99.90
30069;DHT22;16894;49.456;10.644;2023-07-28T14:41:32;23.10;99.90
30069;DHT22;16894;49.456;10.644;2023-07-28T14:43:58;23.10;99.90
30069;DHT22;16894;49.456;10.644;2023-07-28T14:46:24;23.00;99.90
30069;DHT22;16894;49.456;10.644;2023-07-28T14:48:51;22.90;99.90
30069;DHT22;16894;49.456;10.644;2023-07-28T14:51:17;22.80;99.90
30069;DHT22;16894;49.456;10.644;2023-07-28T14:53:42;22.80;99.90
30069;DHT22;16894;49.456;10.644;2023-07-28T14:56:11;22.70;99.90
30069;DHT22;16894;49.456;10.644;2023-07-28T14:58:36;22.70;99.90
30069;DHT22;16894;49.456;10.644;2023-07-28T15:01:02;22.50;99.90
30069;DHT22;16894;49.456;10.644;2023-07-28T15:03:30;22.50;99.90
30069;DHT22;16894;49.456;10.644;2023-07-28T15:05:56;22.60;99.90
30069;DHT22;16894;49.456;10.644;2023-07-28T15:08:22;22.50;99.90
30069;DHT22;16894;49.456;10.644;2023-07-28T15:10:48;22.50;99.90
30069;DHT22;16894;49.456;10.644;2023-07-28T15:13:14;22.50;99.90
30069;DHT22;16894;49.456;10.644;2023-07-28T15:15:39;22.50;99.90
30069;DHT22;16894;49.456;10.644;2023-07-28T15:18:05;22.30;99.90
30069;DHT22;16894;49.456;10.644;2023-07-28T15:20:32;22.30;99.90